createdAt,value
2022-12-29T00:00:12.535Z,676.61
2022-12-29T00:01:12.551Z,676.61
2022-12-29T00:02:12.551Z,676.60
2022-12-29T00:03:12.618Z,676.60
2022-12-29T00:04:15.056Z,676.60
2022-12-29T00:05:12.482Z,676.60
2022-12-29T00:06:12.477Z,676.61
2022-12-29T00:07:12.444Z,676.60
2022-12-29T00:08:12.624Z,676.61
2022-12-29T00:09:12.448Z,676.61
2022-12-29T00:10:12.426Z,676.60
2022-12-29T00:11:12.395Z,676.60
2022-12-29T00:12:12.398Z,676.60
2022-12-29T00:13:12.417Z,676.60
2022-12-29T00:14:12.376Z,676.61
2022-12-29T00:15:12.360Z,676.60
2022-12-29T00:16:12.389Z,676.61
2022-12-29T00:17:12.372Z,676.60
2022-12-29T00:18:12.324Z,676.61
2022-12-29T00:19:12.347Z,676.61
2022-12-29T00:20:12.312Z,676.61
2022-12-29T00:21:12.288Z,676.59
2022-12-29T00:22:12.289Z,676.61
2022-12-29T00:23:13.242Z,676.60
2022-12-29T00:24:12.266Z,676.60
2022-12-29T00:25:12.260Z,676.60
2022-12-29T00:26:12.236Z,676.60
2022-12-29T00:27:12.236Z,676.61
2022-12-29T00:28:12.240Z,676.60
2022-12-29T00:29:12.203Z,676.61
2022-12-29T00:30:12.237Z,676.60
2022-12-29T00:31:12.223Z,676.60
2022-12-29T00:32:12.177Z,676.60
2022-12-29T00:33:12.155Z,676.61
2022-12-29T00:34:12.156Z,676.61
2022-12-29T00:35:12.160Z,676.60
2022-12-29T00:36:12.131Z,676.62
2022-12-29T00:37:12.112Z,676.60
2022-12-29T00:38:12.112Z,676.61
2022-12-29T00:39:12.084Z,676.60
2022-12-29T00:40:12.102Z,676.60
2022-12-29T00:41:12.069Z,676.60
2022-12-29T00:42:12.072Z,676.60
2022-12-29T00:43:12.090Z,676.60
2022-12-29T00:44:12.049Z,676.60
2022-12-29T00:45:12.033Z,676.60
2022-12-29T00:46:19.504Z,676.60
2022-12-29T00:47:12.996Z,676.59
2022-12-29T00:48:11.992Z,676.60
2022-12-29T00:49:11.985Z,676.60
2022-12-29T00:50:12.145Z,676.60
2022-12-29T00:51:11.949Z,676.61
2022-12-29T00:52:11.959Z,676.61
2022-12-29T00:53:11.931Z,676.60
2022-12-29T00:54:11.921Z,676.60
2022-12-29T00:55:11.917Z,676.60
2022-12-29T00:56:11.929Z,676.62
2022-12-29T00:57:11.990Z,676.61
2022-12-29T00:58:11.870Z,676.60
2022-12-29T00:59:11.884Z,676.60
2022-12-29T01:00:11.858Z,676.60
2022-12-29T01:01:11.954Z,676.61
2022-12-29T01:02:12.054Z,676.60
2022-12-29T01:03:11.958Z,676.60
2022-12-29T01:04:11.823Z,676.61
2022-12-29T01:05:11.807Z,676.60
2022-12-29T01:06:11.784Z,676.61
2022-12-29T01:07:11.780Z,676.60
2022-12-29T01:08:11.770Z,676.60
2022-12-29T01:09:11.776Z,676.61
2022-12-29T01:10:11.774Z,676.60
2022-12-29T01:11:11.780Z,676.60
2022-12-29T01:12:11.757Z,676.60
2022-12-29T01:13:11.729Z,676.60
2022-12-29T01:14:11.707Z,676.60
2022-12-29T01:15:11.715Z,676.61
2022-12-29T01:16:11.700Z,676.60
2022-12-29T01:17:11.669Z,676.60
2022-12-29T01:18:11.650Z,676.60
2022-12-29T01:19:11.711Z,676.60
2022-12-29T01:20:11.648Z,676.59
2022-12-29T01:21:12.657Z,676.60
2022-12-29T01:22:11.598Z,676.60
2022-12-29T01:23:11.598Z,676.60
2022-12-29T01:24:11.673Z,676.61
2022-12-29T01:25:11.598Z,676.60
2022-12-29T01:26:11.560Z,676.60
2022-12-29T01:27:11.549Z,676.60
2022-12-29T01:28:11.529Z,676.60
2022-12-29T01:29:11.555Z,676.60
2022-12-29T01:30:11.586Z,676.60
2022-12-29T01:31:11.549Z,676.60
2022-12-29T01:32:11.499Z,676.60
2022-12-29T01:33:11.510Z,676.61
2022-12-29T01:34:11.490Z,676.60
2022-12-29T01:35:11.470Z,676.61
2022-12-29T01:36:11.456Z,676.59
2022-12-29T01:37:11.446Z,676.60
2022-12-29T01:38:11.442Z,676.60
2022-12-29T01:39:11.468Z,676.59
2022-12-29T01:40:11.434Z,676.61
2022-12-29T01:41:11.402Z,676.60
2022-12-29T01:42:11.392Z,676.60
2022-12-29T01:43:11.388Z,676.59
2022-12-29T01:44:11.375Z,676.60
2022-12-29T01:45:11.380Z,676.60
2022-12-29T01:46:11.371Z,676.60
2022-12-29T01:47:11.331Z,676.60
2022-12-29T01:48:11.315Z,676.61
2022-12-29T01:49:11.301Z,676.59
2022-12-29T01:50:11.308Z,676.60
2022-12-29T01:51:11.290Z,676.60
2022-12-29T01:52:11.274Z,676.60
2022-12-29T01:53:11.267Z,676.60
2022-12-29T01:54:11.251Z,676.59
2022-12-29T01:55:11.263Z,676.59
2022-12-29T01:56:11.237Z,676.60
2022-12-29T01:57:11.222Z,676.60
2022-12-29T01:58:11.250Z,676.60
2022-12-29T01:59:11.303Z,676.59
2022-12-29T02:00:11.271Z,676.60
2022-12-29T02:01:11.391Z,676.59
2022-12-29T02:02:11.426Z,676.60
2022-12-29T02:03:11.310Z,676.60
2022-12-29T02:04:11.282Z,676.60
2022-12-29T02:05:11.417Z,676.60
2022-12-29T02:06:11.351Z,676.60
2022-12-29T02:07:11.338Z,676.60
2022-12-29T02:08:11.331Z,676.60
2022-12-29T02:09:11.362Z,676.59
2022-12-29T02:10:11.318Z,676.60
2022-12-29T02:11:11.354Z,676.60
2022-12-29T02:12:11.331Z,676.60
2022-12-29T02:13:11.046Z,676.60
2022-12-29T02:14:11.029Z,676.60
2022-12-29T02:15:11.043Z,676.60
2022-12-29T02:16:11.103Z,676.59
2022-12-29T02:17:11.006Z,676.60
2022-12-29T02:18:10.991Z,676.60
2022-12-29T02:19:10.986Z,676.60
2022-12-29T02:20:10.997Z,676.60
2022-12-29T02:21:10.943Z,676.61
2022-12-29T02:22:10.923Z,676.60
2022-12-29T02:23:10.955Z,676.59
2022-12-29T02:24:17.977Z,676.59
2022-12-29T02:25:10.920Z,676.59
2022-12-29T02:26:10.915Z,676.60
2022-12-29T02:27:10.882Z,676.60
2022-12-29T02:28:10.904Z,676.61
2022-12-29T02:29:10.896Z,676.60
2022-12-29T02:30:10.844Z,676.60
2022-12-29T02:31:10.845Z,676.59
2022-12-29T02:32:10.863Z,676.60
2022-12-29T02:33:10.836Z,676.60
2022-12-29T02:34:10.806Z,676.59
2022-12-29T02:35:10.808Z,676.59
2022-12-29T02:36:10.788Z,676.60
2022-12-29T02:37:10.797Z,676.60
2022-12-29T02:38:10.807Z,676.59
2022-12-29T02:39:10.810Z,676.60
2022-12-29T02:40:10.833Z,676.59
2022-12-29T02:41:10.873Z,676.59
2022-12-29T02:42:10.919Z,676.58
2022-12-29T02:43:10.889Z,676.60
2022-12-29T02:44:10.946Z,676.60
2022-12-29T02:45:10.943Z,676.60
2022-12-29T02:46:10.772Z,676.59
2022-12-29T02:47:10.666Z,676.59
2022-12-29T02:48:10.689Z,676.60
2022-12-29T02:49:10.644Z,676.60
2022-12-29T02:50:10.614Z,676.60
2022-12-29T02:51:10.628Z,676.60
2022-12-29T02:52:10.615Z,676.60
2022-12-29T02:53:10.604Z,676.60
2022-12-29T02:54:10.602Z,676.60
2022-12-29T02:55:10.578Z,676.59
2022-12-29T02:56:10.568Z,676.60
2022-12-29T02:57:10.546Z,676.59
2022-12-29T02:58:10.524Z,676.60
2022-12-29T02:59:10.553Z,676.59
2022-12-29T03:00:10.548Z,676.60
2022-12-29T03:01:10.542Z,676.61
2022-12-29T03:02:10.604Z,676.60
2022-12-29T03:03:10.592Z,676.60
2022-12-29T03:04:10.466Z,676.60
2022-12-29T03:05:10.536Z,676.59
2022-12-29T03:06:10.481Z,676.60
2022-12-29T03:07:10.439Z,676.59
2022-12-29T03:08:10.427Z,676.60
2022-12-29T03:09:18.748Z,676.60
2022-12-29T03:10:11.917Z,676.60
2022-12-29T03:11:10.393Z,676.61
2022-12-29T03:12:10.378Z,676.59
2022-12-29T03:13:10.376Z,676.60
2022-12-29T03:14:10.348Z,676.60
2022-12-29T03:15:10.369Z,676.60
2022-12-29T03:16:10.327Z,676.59
2022-12-29T03:17:10.460Z,676.60
2022-12-29T03:18:10.313Z,676.60
2022-12-29T03:19:10.326Z,676.60
2022-12-29T03:20:10.286Z,676.59
2022-12-29T03:21:10.300Z,676.60
2022-12-29T03:22:10.271Z,676.59
2022-12-29T03:23:10.280Z,676.59
2022-12-29T03:24:10.265Z,676.59
2022-12-29T03:25:10.248Z,676.60
2022-12-29T03:26:10.213Z,676.61
2022-12-29T03:27:10.214Z,676.61
2022-12-29T03:28:10.410Z,676.60
2022-12-29T03:29:10.201Z,676.60
2022-12-29T03:30:10.188Z,676.60
2022-12-29T03:31:10.234Z,676.61
2022-12-29T03:32:10.150Z,676.59
2022-12-29T03:33:10.169Z,676.60
2022-12-29T03:34:10.136Z,676.59
2022-12-29T03:35:10.148Z,676.60
2022-12-29T03:36:10.105Z,676.60
2022-12-29T03:37:10.110Z,676.61
2022-12-29T03:38:10.089Z,676.61
2022-12-29T03:39:10.102Z,676.60
2022-12-29T03:40:10.068Z,676.60
2022-12-29T03:41:10.181Z,676.61
2022-12-29T03:42:10.037Z,676.61
2022-12-29T03:43:10.050Z,676.61
2022-12-29T03:44:10.010Z,676.61
2022-12-29T03:45:10.146Z,676.61
2022-12-29T03:46:10.016Z,676.60
2022-12-29T03:47:09.998Z,676.60
2022-12-29T03:48:10.135Z,676.61
2022-12-29T03:49:09.966Z,676.61
2022-12-29T03:50:09.958Z,676.60
2022-12-29T03:51:09.955Z,676.62
2022-12-29T03:52:09.932Z,676.61
2022-12-29T03:53:09.920Z,676.61
2022-12-29T03:54:09.913Z,676.61
2022-12-29T03:55:09.923Z,676.60
2022-12-29T03:56:09.892Z,676.61
2022-12-29T03:57:09.880Z,676.61
2022-12-29T03:58:09.861Z,676.61
2022-12-29T03:59:09.847Z,676.61
2022-12-29T04:00:09.837Z,676.61
2022-12-29T04:01:09.898Z,676.62
2022-12-29T04:02:10.049Z,676.61
2022-12-29T04:03:09.950Z,676.60
2022-12-29T04:04:09.808Z,676.59
2022-12-29T04:05:09.901Z,676.61
2022-12-29T04:06:09.831Z,676.61
2022-12-29T04:07:09.879Z,676.61
2022-12-29T04:08:09.838Z,676.61
2022-12-29T04:09:09.860Z,676.60
2022-12-29T04:10:09.864Z,676.61
2022-12-29T04:11:09.891Z,676.60
2022-12-29T04:12:09.859Z,676.62
2022-12-29T04:13:09.926Z,676.61
2022-12-29T04:14:09.850Z,676.61
2022-12-29T04:15:09.883Z,676.60
2022-12-29T04:16:09.924Z,676.60
2022-12-29T04:17:09.859Z,676.60
2022-12-29T04:18:09.727Z,676.61
2022-12-29T04:19:09.923Z,676.61
2022-12-29T04:20:09.849Z,676.62
2022-12-29T04:21:09.936Z,676.61
2022-12-29T04:22:09.851Z,676.61
2022-12-29T04:23:09.854Z,676.61
2022-12-29T04:24:09.588Z,676.61
2022-12-29T04:25:09.560Z,676.61
2022-12-29T04:26:09.552Z,676.61
2022-12-29T04:27:09.538Z,676.62
2022-12-29T04:28:09.550Z,676.62
2022-12-29T04:29:09.548Z,676.60
2022-12-29T04:30:09.522Z,676.61
2022-12-29T04:31:09.539Z,676.60
2022-12-29T04:32:09.549Z,676.60
2022-12-29T04:33:09.548Z,676.61
2022-12-29T04:34:09.606Z,676.60
2022-12-29T04:35:09.611Z,676.61
2022-12-29T04:36:09.627Z,676.61
2022-12-29T04:37:09.678Z,676.59
2022-12-29T04:38:09.603Z,676.60
2022-12-29T04:39:09.665Z,676.59
2022-12-29T04:40:09.391Z,676.59
2022-12-29T04:41:09.759Z,676.61
2022-12-29T04:42:09.362Z,676.61
2022-12-29T04:43:09.373Z,676.60
2022-12-29T04:44:09.363Z,676.61
2022-12-29T04:45:09.342Z,676.61
2022-12-29T04:46:09.461Z,676.60
2022-12-29T04:47:09.328Z,676.60
2022-12-29T04:48:09.327Z,676.60
2022-12-29T04:49:09.369Z,676.60
2022-12-29T04:50:09.287Z,676.60
2022-12-29T04:51:09.293Z,676.60
2022-12-29T04:52:09.274Z,676.60
2022-12-29T04:53:09.256Z,676.60
2022-12-29T04:54:09.235Z,676.61
2022-12-29T04:55:09.227Z,676.60
2022-12-29T04:56:09.217Z,676.60
2022-12-29T04:57:09.226Z,676.61
2022-12-29T04:58:09.197Z,676.60
2022-12-29T04:59:09.189Z,676.61
2022-12-29T05:00:09.190Z,676.61
2022-12-29T05:01:09.169Z,676.60
2022-12-29T05:02:09.298Z,676.61
2022-12-29T05:03:09.497Z,676.61
2022-12-29T05:04:09.117Z,676.61
2022-12-29T05:05:09.116Z,676.60
2022-12-29T05:06:09.162Z,676.62
2022-12-29T05:07:09.150Z,676.60
2022-12-29T05:08:09.109Z,676.61
2022-12-29T05:09:09.082Z,676.61
2022-12-29T05:10:09.064Z,676.61
2022-12-29T05:11:09.077Z,676.60
2022-12-29T05:12:09.059Z,676.61
2022-12-29T05:13:09.025Z,676.61
2022-12-29T05:14:09.032Z,676.60
2022-12-29T05:15:09.003Z,676.61
2022-12-29T05:16:09.096Z,676.61
2022-12-29T05:17:09.026Z,676.61
2022-12-29T05:18:08.976Z,676.61
2022-12-29T05:19:09.038Z,676.60
2022-12-29T05:20:08.966Z,676.61
2022-12-29T05:21:08.942Z,676.59
2022-12-29T05:22:08.926Z,676.61
2022-12-29T05:23:08.928Z,676.60
2022-12-29T05:24:08.926Z,676.61
2022-12-29T05:25:08.905Z,676.60
2022-12-29T05:26:08.912Z,676.59
2022-12-29T05:27:08.876Z,676.61
2022-12-29T05:28:08.897Z,676.61
2022-12-29T05:29:08.860Z,676.59
2022-12-29T05:30:08.879Z,676.60
2022-12-29T05:31:08.888Z,676.60
2022-12-29T05:32:08.839Z,676.61
2022-12-29T05:33:08.865Z,676.61
2022-12-29T05:34:08.815Z,676.60
2022-12-29T05:35:08.810Z,676.61
2022-12-29T05:36:08.883Z,676.61
2022-12-29T05:37:08.882Z,676.61
2022-12-29T05:38:08.903Z,676.62
2022-12-29T05:39:08.839Z,676.60
2022-12-29T05:40:08.919Z,676.61
2022-12-29T05:41:08.959Z,676.61
2022-12-29T05:42:09.012Z,676.61
2022-12-29T05:43:08.845Z,676.61
2022-12-29T05:44:08.960Z,676.62
2022-12-29T05:45:08.844Z,676.61
2022-12-29T05:46:08.861Z,676.61
2022-12-29T05:47:08.954Z,676.61
2022-12-29T05:48:08.665Z,676.61
2022-12-29T05:49:08.879Z,676.62
2022-12-29T05:50:08.624Z,676.61
2022-12-29T05:51:08.623Z,676.62
2022-12-29T05:52:08.605Z,676.61
2022-12-29T05:53:08.604Z,676.62
2022-12-29T05:54:08.585Z,676.61
2022-12-29T05:55:08.568Z,676.61
2022-12-29T05:56:08.553Z,676.62
2022-12-29T05:57:08.629Z,676.61
2022-12-29T05:58:08.602Z,676.61
2022-12-29T05:59:08.518Z,676.61
2022-12-29T06:00:08.511Z,676.61
2022-12-29T06:01:08.572Z,676.60
2022-12-29T06:02:08.695Z,676.62
2022-12-29T06:03:08.688Z,676.61
2022-12-29T06:04:08.546Z,676.61
2022-12-29T06:05:08.455Z,676.62
2022-12-29T06:06:08.439Z,676.62
2022-12-29T06:07:08.441Z,676.61
2022-12-29T06:08:08.447Z,676.61
2022-12-29T06:09:08.406Z,676.62
2022-12-29T06:10:08.408Z,676.62
2022-12-29T06:11:08.381Z,676.62
2022-12-29T06:12:08.371Z,676.62
2022-12-29T06:13:08.365Z,676.63
2022-12-29T06:14:08.379Z,676.62
2022-12-29T06:15:08.375Z,676.62
2022-12-29T06:16:08.346Z,676.62
2022-12-29T06:17:08.309Z,676.62
2022-12-29T06:18:08.325Z,676.62
2022-12-29T06:19:08.287Z,676.62
2022-12-29T06:20:08.342Z,676.62
2022-12-29T06:21:08.267Z,676.62
2022-12-29T06:22:08.293Z,676.62
2022-12-29T06:23:08.255Z,676.61
2022-12-29T06:24:08.264Z,676.61
2022-12-29T06:25:08.220Z,676.60
2022-12-29T06:26:08.222Z,676.61
2022-12-29T06:27:08.217Z,676.61
2022-12-29T06:28:08.220Z,676.61
2022-12-29T06:29:08.188Z,676.60
2022-12-29T06:30:08.180Z,676.61
2022-12-29T06:31:08.151Z,676.61
2022-12-29T06:32:08.202Z,676.61
2022-12-29T06:33:08.151Z,676.60
2022-12-29T06:34:08.776Z,676.61
2022-12-29T06:35:08.112Z,676.60
2022-12-29T06:36:08.108Z,676.61
2022-12-29T06:37:08.587Z,676.61
2022-12-29T06:38:08.103Z,676.61
2022-12-29T06:39:08.062Z,676.61
2022-12-29T06:40:08.074Z,676.60
2022-12-29T06:41:08.042Z,676.62
2022-12-29T06:42:08.042Z,676.61
2022-12-29T06:43:08.292Z,676.61
2022-12-29T06:44:08.025Z,676.61
2022-12-29T06:45:07.993Z,676.61
2022-12-29T06:46:08.048Z,676.62
2022-12-29T06:47:07.985Z,676.61
2022-12-29T06:48:07.965Z,676.61
2022-12-29T06:49:08.014Z,676.62
2022-12-29T06:50:07.954Z,676.62
2022-12-29T06:51:07.935Z,676.62
2022-12-29T06:52:12.795Z,676.61
2022-12-29T06:53:08.901Z,676.62
2022-12-29T06:54:07.957Z,676.62
2022-12-29T06:55:07.888Z,676.61
2022-12-29T06:56:07.906Z,676.62
2022-12-29T06:57:07.869Z,676.62
2022-12-29T06:58:07.873Z,676.62
2022-12-29T06:59:07.862Z,676.62
2022-12-29T07:00:07.834Z,676.62
2022-12-29T07:01:07.867Z,676.62
2022-12-29T07:02:07.997Z,676.61
2022-12-29T07:03:07.989Z,676.62
2022-12-29T07:04:07.819Z,676.62
2022-12-29T07:05:07.796Z,676.62
2022-12-29T07:06:07.797Z,676.62
2022-12-29T07:07:07.761Z,676.62
2022-12-29T07:08:07.761Z,676.61
2022-12-29T07:09:07.747Z,676.62
2022-12-29T07:10:07.741Z,676.61
2022-12-29T07:11:07.714Z,676.62
2022-12-29T07:12:07.705Z,676.62
2022-12-29T07:13:07.686Z,676.63
2022-12-29T07:14:07.702Z,676.63
2022-12-29T07:15:07.668Z,676.64
2022-12-29T07:16:07.680Z,676.62
2022-12-29T07:17:07.698Z,676.63
2022-12-29T07:18:07.651Z,676.62
2022-12-29T07:19:07.627Z,676.64
2022-12-29T07:20:07.644Z,676.61
2022-12-29T07:21:07.617Z,676.62
2022-12-29T07:22:07.616Z,676.62
2022-12-29T07:23:07.577Z,676.63
2022-12-29T07:24:07.579Z,676.62
2022-12-29T07:25:07.585Z,676.62
2022-12-29T07:26:07.674Z,676.63
2022-12-29T07:27:07.556Z,676.63
2022-12-29T07:28:07.566Z,676.62
2022-12-29T07:29:07.515Z,676.62
2022-12-29T07:30:07.526Z,676.63
2022-12-29T07:31:07.532Z,676.62
2022-12-29T07:32:07.635Z,676.63
2022-12-29T07:33:07.576Z,676.62
2022-12-29T07:34:07.546Z,676.62
2022-12-29T07:35:07.577Z,676.61
2022-12-29T07:36:07.562Z,676.63
2022-12-29T07:37:07.602Z,676.63
2022-12-29T07:38:07.617Z,676.62
2022-12-29T07:39:07.619Z,676.61
2022-12-29T07:40:07.588Z,676.62
2022-12-29T07:41:07.626Z,676.62
2022-12-29T07:42:07.716Z,676.62
2022-12-29T07:43:07.638Z,676.61
2022-12-29T07:44:07.705Z,676.63
2022-12-29T07:45:07.700Z,676.62
2022-12-29T07:46:07.763Z,676.62
2022-12-29T07:47:07.638Z,676.62
2022-12-29T07:48:07.679Z,676.62
2022-12-29T07:49:07.335Z,676.62
2022-12-29T07:50:07.652Z,676.62
2022-12-29T07:51:07.330Z,676.62
2022-12-29T07:52:07.286Z,676.61
2022-12-29T07:53:07.275Z,676.62
2022-12-29T07:54:07.259Z,676.62
2022-12-29T07:55:07.220Z,676.62
2022-12-29T07:56:07.270Z,676.62
2022-12-29T07:57:07.207Z,676.62
2022-12-29T07:58:07.198Z,676.62
2022-12-29T07:59:07.164Z,676.61
2022-12-29T08:00:07.182Z,676.62
2022-12-29T08:01:07.194Z,676.61
2022-12-29T08:02:07.243Z,676.61
2022-12-29T08:03:07.140Z,676.62
2022-12-29T08:04:07.173Z,676.62
2022-12-29T08:05:07.095Z,676.62
2022-12-29T08:06:07.121Z,676.62
2022-12-29T08:07:07.083Z,676.62
2022-12-29T08:08:07.101Z,676.63
2022-12-29T08:09:13.657Z,676.62
2022-12-29T08:10:08.062Z,676.62
2022-12-29T08:11:07.059Z,676.62
2022-12-29T08:12:07.050Z,676.62
2022-12-29T08:13:07.038Z,676.63
2022-12-29T08:14:07.031Z,676.63
2022-12-29T08:15:07.007Z,676.62
2022-12-29T08:16:07.044Z,676.63
2022-12-29T08:17:07.011Z,676.63
2022-12-29T08:18:06.971Z,676.63
2022-12-29T08:19:06.944Z,676.63
2022-12-29T08:20:06.949Z,676.62
2022-12-29T08:21:06.933Z,676.62
2022-12-29T08:22:06.928Z,676.62
2022-12-29T08:23:06.905Z,676.63
2022-12-29T08:24:06.913Z,676.62
2022-12-29T08:25:06.880Z,676.62
2022-12-29T08:26:08.018Z,676.61
2022-12-29T08:27:20.426Z,676.62
2022-12-29T08:28:07.867Z,676.61
2022-12-29T08:29:06.841Z,676.62
2022-12-29T08:30:08.598Z,676.61
2022-12-29T08:31:06.865Z,676.62
2022-12-29T08:32:06.824Z,676.62
2022-12-29T08:33:06.802Z,676.62
2022-12-29T08:34:06.787Z,676.62
2022-12-29T08:35:06.807Z,676.61
2022-12-29T08:36:06.762Z,676.62
2022-12-29T08:37:06.749Z,676.63
2022-12-29T08:38:06.743Z,676.62
2022-12-29T08:39:06.739Z,676.61
2022-12-29T08:40:06.756Z,676.60
2022-12-29T08:41:06.703Z,676.61
2022-12-29T08:42:06.736Z,676.61
2022-12-29T08:43:07.437Z,676.61
2022-12-29T08:44:06.697Z,676.60
2022-12-29T08:45:06.683Z,676.61
2022-12-29T08:46:07.369Z,676.61
2022-12-29T08:47:06.652Z,676.61
2022-12-29T08:48:06.655Z,676.62
2022-12-29T08:49:06.643Z,676.60
2022-12-29T08:50:06.616Z,676.61
2022-12-29T08:51:06.596Z,676.61
2022-12-29T08:52:06.575Z,676.61
2022-12-29T08:53:06.547Z,676.61
2022-12-29T08:54:06.557Z,676.61
2022-12-29T08:55:06.571Z,676.62
2022-12-29T08:56:06.545Z,676.61
2022-12-29T08:57:06.515Z,676.61
2022-12-29T08:58:14.092Z,676.61
2022-12-29T08:59:06.662Z,676.60
2022-12-29T09:00:06.756Z,676.61
2022-12-29T09:01:06.867Z,676.60
2022-12-29T09:02:06.858Z,676.59
2022-12-29T09:03:06.986Z,676.61
2022-12-29T09:04:16.015Z,676.61
2022-12-29T09:05:07.499Z,676.61
2022-12-29T09:06:06.583Z,676.60
2022-12-29T09:07:06.431Z,676.61
2022-12-29T09:08:06.408Z,676.61
2022-12-29T09:09:06.396Z,676.61
2022-12-29T09:10:06.400Z,676.61
2022-12-29T09:11:06.365Z,676.61
2022-12-29T09:12:06.465Z,676.62
2022-12-29T09:13:06.636Z,676.61
2022-12-29T09:14:06.545Z,676.61
2022-12-29T09:15:06.370Z,676.62
2022-12-29T09:16:13.806Z,676.62
2022-12-29T09:17:06.343Z,676.63
2022-12-29T09:18:06.296Z,676.63
2022-12-29T09:19:06.283Z,676.63
2022-12-29T09:20:06.328Z,676.63
2022-12-29T09:21:06.266Z,676.62
2022-12-29T09:22:06.255Z,676.63
2022-12-29T09:23:06.248Z,676.64
2022-12-29T09:24:06.239Z,676.63
2022-12-29T09:25:06.271Z,676.62
2022-12-29T09:26:06.218Z,676.62
2022-12-29T09:27:06.247Z,676.62
2022-12-29T09:28:06.215Z,676.62
2022-12-29T09:29:06.167Z,676.63
2022-12-29T09:30:06.202Z,676.63
2022-12-29T09:31:06.198Z,676.62
2022-12-29T09:32:07.923Z,676.61
2022-12-29T09:33:06.162Z,676.62
2022-12-29T09:34:06.140Z,676.62
2022-12-29T09:35:06.183Z,676.62
2022-12-29T09:36:06.108Z,676.62
2022-12-29T09:37:06.118Z,676.64
2022-12-29T09:38:06.077Z,676.62
2022-12-29T09:39:06.073Z,676.62
2022-12-29T09:40:06.048Z,676.62
2022-12-29T09:41:06.053Z,676.62
2022-12-29T09:42:06.032Z,676.62
2022-12-29T09:43:06.010Z,676.62
2022-12-29T09:44:06.019Z,676.63
2022-12-29T09:45:06.027Z,676.63
2022-12-29T09:46:05.968Z,676.62
2022-12-29T09:47:06.046Z,676.63
2022-12-29T09:48:09.724Z,676.62
2022-12-29T09:49:05.970Z,676.63
2022-12-29T09:50:05.965Z,676.62
2022-12-29T09:51:05.930Z,676.62
2022-12-29T09:52:05.911Z,676.62
2022-12-29T09:53:05.913Z,676.63
2022-12-29T09:54:05.907Z,676.62
2022-12-29T09:55:11.975Z,676.62
2022-12-29T09:56:06.880Z,676.62
2022-12-29T09:57:05.874Z,676.63
2022-12-29T09:58:05.856Z,676.62
2022-12-29T09:59:05.873Z,676.62
2022-12-29T10:00:05.829Z,676.62
2022-12-29T10:01:05.873Z,676.62
2022-12-29T10:02:06.077Z,676.62
2022-12-29T10:03:05.860Z,676.63
2022-12-29T10:04:05.796Z,676.63
2022-12-29T10:05:05.786Z,676.63
2022-12-29T10:06:05.757Z,676.62
2022-12-29T10:07:29.664Z,676.62
2022-12-29T10:08:06.718Z,676.62
2022-12-29T10:09:05.768Z,676.62
2022-12-29T10:10:05.716Z,676.62
2022-12-29T10:11:05.731Z,676.62
2022-12-29T10:12:05.739Z,676.62
2022-12-29T10:13:05.692Z,676.63
2022-12-29T10:14:07.557Z,676.62
2022-12-29T10:15:06.351Z,676.62
2022-12-29T10:16:05.729Z,676.62
2022-12-29T10:17:05.651Z,676.61
2022-12-29T10:18:05.638Z,676.62
2022-12-29T10:19:05.632Z,676.62
2022-12-29T10:20:05.612Z,676.61
2022-12-29T10:21:05.604Z,676.62
2022-12-29T10:22:05.650Z,676.62
2022-12-29T10:23:05.566Z,676.62
2022-12-29T10:24:05.559Z,676.62
2022-12-29T10:25:05.564Z,676.62
2022-12-29T10:26:05.549Z,676.61
2022-12-29T10:27:05.511Z,676.62
2022-12-29T10:28:05.531Z,676.59
2022-12-29T10:29:05.490Z,676.61
2022-12-29T10:30:05.573Z,676.60
2022-12-29T10:31:08.898Z,676.59
2022-12-29T10:32:05.523Z,676.59
2022-12-29T10:33:05.530Z,676.59
2022-12-29T10:34:05.456Z,676.59
2022-12-29T10:35:05.480Z,676.59
2022-12-29T10:36:05.431Z,676.60
2022-12-29T10:37:05.427Z,676.59
2022-12-29T10:38:05.417Z,676.59
2022-12-29T10:39:05.410Z,676.59
2022-12-29T10:40:05.375Z,676.58
2022-12-29T10:41:05.399Z,676.59
2022-12-29T10:42:05.370Z,676.59
2022-12-29T10:43:05.360Z,676.58
2022-12-29T10:44:05.382Z,676.59
2022-12-29T10:45:05.354Z,676.59
2022-12-29T10:46:05.378Z,676.59
2022-12-29T10:47:05.331Z,676.59
2022-12-29T10:48:05.289Z,676.58
2022-12-29T10:49:05.309Z,676.59
2022-12-29T10:50:05.324Z,676.59
2022-12-29T10:51:05.284Z,676.59
2022-12-29T10:52:05.255Z,676.59
2022-12-29T10:53:05.429Z,676.59
2022-12-29T10:54:05.242Z,676.58
2022-12-29T10:55:05.223Z,676.59
2022-12-29T10:56:05.192Z,676.58
2022-12-29T10:57:05.197Z,676.58
2022-12-29T10:58:05.169Z,676.58
2022-12-29T10:59:05.184Z,676.58
2022-12-29T11:00:05.175Z,676.58
2022-12-29T11:01:05.219Z,676.58
2022-12-29T11:02:05.215Z,676.59
2022-12-29T11:03:05.231Z,676.58
2022-12-29T11:04:05.117Z,676.58
2022-12-29T11:05:05.126Z,676.59
2022-12-29T11:06:05.121Z,676.59
2022-12-29T11:07:05.075Z,676.58
2022-12-29T11:08:05.091Z,676.59
2022-12-29T11:09:05.064Z,676.58
2022-12-29T11:10:05.041Z,676.58
2022-12-29T11:11:05.067Z,676.59
2022-12-29T11:12:05.007Z,676.59
2022-12-29T11:13:05.060Z,676.58
2022-12-29T11:14:04.996Z,676.58
2022-12-29T11:15:05.036Z,676.58
2022-12-29T11:16:05.003Z,676.59
2022-12-29T11:17:04.981Z,676.58
2022-12-29T11:18:04.940Z,676.58
2022-12-29T11:19:04.994Z,676.59
2022-12-29T11:20:04.926Z,676.59
2022-12-29T11:21:04.924Z,676.58
2022-12-29T11:22:04.924Z,676.57
2022-12-29T11:23:04.908Z,676.58
2022-12-29T11:24:04.913Z,676.58
2022-12-29T11:25:04.917Z,676.58
2022-12-29T11:26:04.883Z,676.58
2022-12-29T11:27:04.857Z,676.59
2022-12-29T11:28:04.837Z,676.59
2022-12-29T11:29:04.837Z,676.58
2022-12-29T11:30:04.828Z,676.59
2022-12-29T11:31:04.819Z,676.57
2022-12-29T11:32:04.846Z,676.59
2022-12-29T11:33:04.793Z,676.59
2022-12-29T11:34:04.789Z,676.59
2022-12-29T11:35:04.795Z,676.58
2022-12-29T11:36:04.746Z,676.58
2022-12-29T11:37:04.755Z,676.58
2022-12-29T11:38:04.718Z,676.58
2022-12-29T11:39:08.885Z,676.58
2022-12-29T11:40:05.702Z,676.57
2022-12-29T11:41:04.696Z,676.59
2022-12-29T11:42:04.739Z,676.58
2022-12-29T11:43:04.678Z,676.57
2022-12-29T11:44:04.701Z,676.58
2022-12-29T11:45:09.145Z,676.58
2022-12-29T11:46:05.796Z,676.56
2022-12-29T11:47:04.636Z,676.58
2022-12-29T11:48:04.608Z,676.58
2022-12-29T11:49:04.616Z,676.58
2022-12-29T11:50:04.601Z,676.59
2022-12-29T11:51:04.604Z,676.57
2022-12-29T11:52:04.600Z,676.57
2022-12-29T11:53:04.576Z,676.58
2022-12-29T11:54:04.582Z,676.58
2022-12-29T11:55:04.574Z,676.58
2022-12-29T11:56:04.521Z,676.58
2022-12-29T11:57:04.545Z,676.57
2022-12-29T11:58:04.507Z,676.58
2022-12-29T11:59:04.544Z,676.57
2022-12-29T12:00:04.488Z,676.58
2022-12-29T12:01:04.490Z,676.57
2022-12-29T12:02:04.631Z,676.59
2022-12-29T12:03:04.598Z,676.57
2022-12-29T12:04:04.547Z,676.57
2022-12-29T12:05:04.446Z,676.57
2022-12-29T12:06:04.423Z,676.58
2022-12-29T12:07:04.472Z,676.58
2022-12-29T12:08:04.424Z,676.57
2022-12-29T12:09:04.413Z,676.58
2022-12-29T12:10:07.916Z,676.58
2022-12-29T12:11:04.365Z,676.57
2022-12-29T12:12:04.389Z,676.57
2022-12-29T12:13:04.412Z,676.58
2022-12-29T12:14:04.400Z,676.58
2022-12-29T12:15:04.337Z,676.57
2022-12-29T12:16:04.361Z,676.57
2022-12-29T12:17:04.308Z,676.57
2022-12-29T12:18:04.331Z,676.57
2022-12-29T12:19:04.279Z,676.58
2022-12-29T12:20:04.286Z,676.57
2022-12-29T12:21:04.261Z,676.58
2022-12-29T12:22:04.249Z,676.58
2022-12-29T12:23:04.258Z,676.57
2022-12-29T12:24:04.272Z,676.57
2022-12-29T12:25:04.224Z,676.57
2022-12-29T12:26:04.206Z,676.58
2022-12-29T12:27:04.243Z,676.58
2022-12-29T12:28:04.189Z,676.58